createdAt,value
2018-07-12T00:02:03.237Z,78.66
2018-07-12T00:04:30.487Z,79.27
2018-07-12T00:06:57.810Z,78.72
2018-07-12T00:09:25.072Z,78.58
2018-07-12T00:11:52.620Z,78.72
2018-07-12T00:14:19.888Z,79.30
2018-07-12T00:16:47.135Z,78.42
2018-07-12T00:19:14.377Z,79.06
2018-07-12T00:21:41.695Z,79.16
2018-07-12T00:24:08.929Z,78.15
2018-07-12T00:26:36.195Z,78.71
2018-07-12T00:29:03.506Z,79.14
2018-07-12T00:31:30.832Z,79.14
2018-07-12T00:33:58.096Z,79.23
2018-07-12T00:36:25.391Z,78.52
2018-07-12T00:38:52.913Z,79.42
2018-07-12T00:41:20.168Z,79.38
2018-07-12T00:43:47.402Z,79.73
2018-07-12T00:46:14.686Z,80.12
2018-07-12T00:48:41.917Z,81.05
2018-07-12T00:51:09.146Z,80.97
2018-07-12T00:53:36.431Z,81.55
2018-07-12T00:56:03.690Z,81.70
2018-07-12T00:58:31.731Z,81.22
2018-07-12T01:00:59.232Z,81.41
2018-07-12T01:03:26.484Z,81.25
2018-07-12T01:05:53.763Z,80.96
2018-07-12T01:08:21.014Z,81.36
2018-07-12T01:10:48.264Z,81.36
2018-07-12T01:13:15.556Z,81.36
2018-07-12T01:15:42.841Z,81.58
2018-07-12T01:18:10.202Z,81.39
2018-07-12T01:20:40.521Z,81.39
2018-07-12T01:23:07.855Z,81.71
2018-07-12T01:25:36.758Z,81.56
2018-07-12T01:28:04.066Z,81.44
2018-07-12T01:30:31.350Z,81.52
2018-07-12T01:32:58.580Z,79.82
2018-07-12T01:35:25.860Z,79.70
2018-07-12T01:37:53.114Z,79.56
2018-07-12T01:40:20.351Z,79.39
2018-07-12T01:42:47.635Z,80.53
2018-07-12T01:45:15.049Z,81.45
2018-07-12T01:47:42.329Z,81.08
2018-07-12T01:50:09.578Z,80.09
2018-07-12T01:52:36.895Z,80.22
2018-07-12T01:55:04.141Z,80.88
2018-07-12T01:57:31.436Z,81.01
2018-07-12T01:59:58.669Z,80.24
2018-07-12T02:02:26.001Z,80.76
2018-07-12T02:04:53.259Z,81.09
2018-07-12T02:07:20.614Z,80.85
2018-07-12T02:09:47.904Z,81.14
2018-07-12T02:12:15.181Z,80.87
2018-07-12T02:14:42.416Z,80.35
2018-07-12T02:17:09.896Z,81.41
2018-07-12T02:19:37.184Z,80.13
2018-07-12T02:22:04.421Z,80.32
2018-07-12T02:24:31.962Z,80.80
2018-07-12T02:26:59.207Z,81.33
2018-07-12T02:29:26.608Z,81.87
2018-07-12T02:31:53.881Z,81.93
2018-07-12T02:34:21.330Z,82.39
2018-07-12T02:36:48.636Z,81.61
2018-07-12T02:39:15.922Z,82.33
2018-07-12T02:41:43.205Z,82.25
2018-07-12T02:44:10.455Z,82.32
2018-07-12T02:46:38.025Z,82.26
2018-07-12T02:49:05.275Z,82.64
2018-07-12T02:51:32.564Z,82.00
2018-07-12T02:53:59.845Z,82.17
2018-07-12T02:56:27.107Z,83.06
2018-07-12T02:58:54.396Z,82.42
2018-07-12T03:01:21.969Z,81.87
2018-07-12T03:03:49.211Z,82.64
2018-07-12T03:06:16.495Z,82.74
2018-07-12T03:08:43.738Z,83.04
2018-07-12T03:11:11.956Z,82.71
2018-07-12T03:13:39.280Z,83.30
2018-07-12T03:16:06.533Z,83.17
2018-07-12T03:18:33.780Z,82.76
2018-07-12T03:21:01.625Z,83.17
2018-07-12T03:23:28.911Z,83.09
2018-07-12T03:25:56.481Z,82.73
2018-07-12T03:28:23.717Z,82.19
2018-07-12T03:30:51.111Z,83.18
2018-07-12T03:33:18.631Z,83.22
2018-07-12T03:35:46.042Z,82.80
2018-07-12T03:38:13.328Z,83.65
2018-07-12T03:40:40.727Z,82.70
2018-07-12T03:43:08.176Z,83.70
2018-07-12T03:45:35.746Z,81.95
2018-07-12T03:48:03.074Z,82.32
2018-07-12T03:50:30.338Z,82.05
2018-07-12T03:52:57.613Z,81.73
2018-07-12T03:55:24.903Z,82.05
2018-07-12T03:57:53.210Z,82.41
2018-07-12T04:00:20.443Z,82.21
2018-07-12T04:02:47.723Z,82.57
2018-07-12T04:05:15.038Z,81.75
2018-07-12T04:07:42.570Z,82.41
2018-07-12T04:10:09.842Z,82.37
2018-07-12T04:12:37.109Z,81.71
2018-07-12T04:15:04.362Z,82.50
2018-07-12T04:17:34.706Z,81.63
2018-07-12T04:20:03.269Z,82.67
2018-07-12T04:22:31.778Z,82.93
2018-07-12T04:24:59.047Z,82.18
2018-07-12T04:27:26.472Z,82.57
2018-07-12T04:29:54.825Z,82.57
2018-07-12T04:32:22.194Z,82.41
2018-07-12T04:34:50.051Z,83.12
2018-07-12T04:37:17.418Z,83.23
2018-07-12T04:39:44.818Z,82.60
2018-07-12T04:42:12.086Z,82.09
2018-07-12T04:44:39.342Z,81.73
2018-07-12T04:47:06.773Z,81.73
2018-07-12T04:49:34.046Z,81.79
2018-07-12T04:52:01.630Z,82.77
2018-07-12T04:54:29.588Z,82.63
2018-07-12T04:56:56.857Z,81.77
2018-07-12T04:59:24.112Z,82.61
2018-07-12T05:01:51.389Z,81.42
2018-07-12T05:04:18.660Z,82.03
2018-07-12T05:06:45.970Z,82.30
2018-07-12T05:09:13.278Z,81.44
2018-07-12T05:11:40.641Z,81.58
2018-07-12T05:14:08.659Z,82.02
2018-07-12T05:16:36.156Z,82.43
2018-07-12T05:19:03.402Z,81.99
2018-07-12T05:21:30.767Z,81.77
2018-07-12T05:23:58.040Z,81.51
2018-07-12T05:26:25.347Z,81.05
2018-07-12T05:28:52.651Z,81.48
2018-07-12T05:31:19.906Z,80.78
2018-07-12T05:33:47.373Z,80.98
2018-07-12T05:36:28.693Z,82.15
2018-07-12T05:38:57.147Z,81.31
2018-07-12T05:41:25.445Z,82.37
2018-07-12T05:43:53.820Z,81.18
2018-07-12T05:46:22.196Z,80.12
2018-07-12T05:48:50.728Z,79.23
2018-07-12T05:51:19.190Z,79.66
2018-07-12T05:53:47.635Z,80.49
2018-07-12T05:56:16.037Z,79.16
2018-07-12T05:58:44.391Z,79.77
2018-07-12T06:01:23.974Z,79.42
2018-07-12T06:03:52.344Z,77.80
2018-07-12T06:06:20.965Z,77.15
2018-07-12T06:08:49.324Z,78.00
2018-07-12T06:11:17.752Z,77.37
2018-07-12T06:13:46.121Z,76.40
2018-07-12T06:16:14.476Z,75.10
2018-07-12T06:18:42.844Z,75.22
2018-07-12T06:21:11.234Z,74.85
2018-07-12T06:23:39.648Z,76.31
2018-07-12T06:26:08.109Z,76.42
2018-07-12T06:28:36.491Z,75.75
2018-07-12T06:31:04.818Z,75.54
2018-07-12T06:33:33.252Z,75.62
2018-07-12T06:36:01.786Z,74.80
2018-07-12T06:38:30.199Z,75.57
2018-07-12T06:40:58.548Z,74.99
2018-07-12T06:43:26.939Z,76.10
2018-07-12T06:45:55.358Z,76.57
2018-07-12T06:48:23.823Z,75.61
2018-07-12T06:50:52.223Z,75.44
2018-07-12T06:53:20.624Z,75.12
2018-07-12T06:55:49.166Z,75.08
2018-07-12T06:58:17.555Z,74.37
2018-07-12T07:00:45.941Z,74.68
2018-07-12T07:03:14.304Z,73.60
2018-07-12T07:05:42.734Z,74.10
2018-07-12T07:08:11.128Z,73.60
2018-07-12T07:10:39.467Z,73.80
2018-07-12T07:13:07.967Z,74.11
2018-07-12T07:15:36.376Z,73.09
2018-07-12T07:18:04.920Z,70.80
2018-07-12T07:20:33.365Z,72.03
2018-07-12T07:23:01.792Z,72.02
2018-07-12T07:25:30.286Z,70.82
2018-07-12T07:27:58.658Z,71.41
2018-07-12T07:30:27.906Z,71.47
2018-07-12T07:32:56.286Z,70.53
2018-07-12T07:35:24.664Z,71.09
2018-07-12T07:37:53.015Z,69.36
2018-07-12T07:40:21.401Z,71.02
2018-07-12T07:45:31.248Z,70.24
2018-07-12T07:47:59.565Z,70.01
2018-07-12T07:50:28.662Z,69.79
2018-07-12T07:52:56.928Z,68.33
2018-07-12T07:55:25.228Z,69.01
2018-07-12T07:57:53.491Z,67.25
2018-07-12T08:00:21.827Z,67.98
2018-07-12T08:02:50.168Z,67.21
2018-07-12T08:05:18.438Z,67.19
2018-07-12T08:07:47.216Z,67.46
2018-07-12T08:10:15.624Z,67.43
2018-07-12T08:12:44.257Z,68.07
2018-07-12T08:15:12.710Z,67.92
2018-07-12T08:17:41.024Z,66.19
2018-07-12T08:20:09.345Z,66.20
2018-07-12T08:22:37.695Z,67.12
2018-07-12T08:25:06.007Z,68.11
2018-07-12T08:27:34.353Z,66.48
2018-07-12T08:30:02.641Z,67.51
2018-07-12T08:32:30.937Z,66.11
2018-07-12T08:34:59.338Z,66.33
2018-07-12T08:37:27.587Z,67.55
2018-07-12T08:39:55.910Z,67.87
2018-07-12T08:42:24.346Z,66.52
2018-07-12T08:44:52.629Z,66.34
2018-07-12T08:47:20.966Z,65.71
2018-07-12T08:49:49.273Z,66.05
2018-07-12T08:52:17.587Z,65.74
2018-07-12T08:54:45.978Z,64.91
2018-07-12T08:57:14.217Z,65.05
2018-07-12T08:59:42.486Z,64.68
2018-07-12T09:02:10.810Z,65.10
2018-07-12T09:04:39.089Z,64.56
2018-07-12T09:07:07.645Z,63.88
2018-07-12T09:09:36.035Z,63.64
2018-07-12T09:12:04.646Z,62.32
2018-07-12T09:14:33.036Z,61.81
2018-07-12T09:17:01.343Z,62.02
2018-07-12T09:19:30.039Z,62.94
2018-07-12T09:21:58.355Z,64.66
2018-07-12T09:24:26.661Z,63.29
2018-07-12T09:26:54.965Z,63.18
2018-07-12T09:29:23.271Z,63.17
2018-07-12T09:31:51.593Z,63.21
2018-07-12T09:34:19.866Z,62.73
2018-07-12T09:36:48.453Z,61.41
2018-07-12T09:39:16.737Z,61.38
2018-07-12T09:41:45.017Z,60.56
2018-07-12T09:44:13.335Z,61.55
2018-07-12T09:46:41.626Z,60.75
2018-07-12T09:49:10.046Z,61.00
2018-07-12T09:51:38.327Z,59.99
2018-07-12T09:54:06.667Z,61.27
2018-07-12T09:56:46.467Z,60.48
2018-07-12T09:59:14.764Z,62.12
2018-07-12T10:01:48.543Z,61.80
2018-07-12T10:04:16.882Z,59.18
2018-07-12T10:06:51.275Z,59.18
2018-07-12T10:09:24.849Z,57.53
2018-07-12T10:11:58.461Z,59.24
2018-07-12T10:14:32.065Z,57.95
2018-07-12T10:17:05.658Z,58.46
2018-07-12T10:19:34.114Z,56.19
2018-07-12T10:22:02.453Z,56.05
2018-07-12T10:24:30.790Z,56.84
2018-07-12T10:26:59.186Z,55.92
2018-07-12T10:29:27.479Z,54.97
2018-07-12T10:31:55.797Z,55.94
2018-07-12T10:34:24.112Z,55.07
2018-07-12T10:36:52.482Z,54.28
2018-07-12T10:39:20.922Z,54.29
2018-07-12T10:41:49.192Z,54.48
2018-07-12T10:44:17.516Z,53.45
2018-07-12T10:46:45.905Z,52.55
2018-07-12T10:49:14.261Z,51.41
2018-07-12T10:51:42.591Z,51.57
2018-07-12T10:54:10.917Z,51.01
2018-07-12T10:56:39.236Z,50.74
2018-07-12T10:59:07.561Z,50.97
2018-07-12T11:01:35.853Z,48.96
2018-07-12T11:04:04.177Z,49.43
2018-07-12T11:06:32.524Z,50.07
2018-07-12T11:09:00.910Z,49.41
2018-07-12T11:11:30.843Z,48.61
2018-07-12T11:13:59.136Z,50.54
2018-07-12T11:16:27.445Z,48.09
2018-07-12T11:18:55.794Z,50.51
2018-07-12T11:21:24.131Z,48.49
2018-07-12T11:23:52.813Z,49.19
2018-07-12T11:26:21.174Z,46.30
2018-07-12T11:28:49.436Z,44.38
2018-07-12T11:31:17.777Z,46.32
2018-07-12T11:33:47.078Z,45.51
2018-07-12T11:36:15.431Z,47.95
2018-07-12T11:38:44.525Z,47.34
2018-07-12T11:41:13.170Z,46.49
2018-07-12T11:43:41.756Z,44.76
2018-07-12T11:46:11.427Z,46.18
2018-07-12T11:48:40.752Z,46.06
2018-07-12T11:51:09.212Z,45.06
2018-07-12T11:53:37.530Z,45.29
2018-07-12T11:56:05.791Z,44.50
2018-07-12T11:58:34.116Z,45.01
2018-07-12T12:01:02.741Z,43.91
2018-07-12T12:03:31.407Z,44.27
2018-07-12T12:05:59.725Z,43.54
2018-07-12T12:08:28.173Z,44.82
2018-07-12T12:10:56.491Z,44.78
2018-07-12T12:13:24.840Z,46.27
2018-07-12T12:15:53.100Z,44.23
2018-07-12T12:18:21.434Z,41.58
2018-07-12T12:20:49.725Z,41.75
2018-07-12T12:23:18.067Z,41.25
2018-07-12T12:25:46.397Z,40.99
2018-07-12T12:28:14.659Z,40.19
2018-07-12T12:30:42.929Z,39.87
2018-07-12T12:33:11.290Z,39.80
2018-07-12T12:35:39.616Z,38.94
2018-07-12T12:38:07.876Z,38.60
2018-07-12T12:40:36.195Z,39.74
2018-07-12T12:43:04.580Z,36.97
2018-07-12T12:45:32.924Z,37.34
2018-07-12T12:48:01.468Z,37.97
2018-07-12T12:50:29.807Z,38.79
2018-07-12T12:52:58.070Z,40.49
2018-07-12T12:55:26.376Z,40.89
2018-07-12T12:57:54.708Z,39.87
2018-07-12T13:00:22.977Z,40.07
2018-07-12T13:02:51.301Z,40.58
2018-07-12T13:05:19.586Z,41.55
2018-07-12T13:07:47.829Z,41.97
2018-07-12T13:10:16.170Z,44.85
2018-07-12T13:12:44.493Z,45.84
2018-07-12T13:15:12.951Z,46.75
2018-07-12T13:17:41.346Z,46.15
2018-07-12T13:20:09.576Z,46.18
2018-07-12T13:22:37.856Z,46.36
2018-07-12T13:25:06.613Z,46.98
2018-07-12T13:27:35.918Z,47.14
2018-07-12T13:30:04.199Z,46.66
2018-07-12T13:32:32.598Z,47.40
2018-07-12T13:35:00.969Z,47.48
2018-07-12T13:37:29.222Z,48.47
2018-07-12T13:39:57.466Z,48.48
2018-07-12T13:42:25.793Z,49.36
2018-07-12T13:44:54.167Z,49.45
2018-07-12T13:47:22.563Z,48.32
2018-07-12T13:49:50.863Z,49.54
2018-07-12T13:52:19.460Z,47.48
2018-07-12T13:54:47.717Z,46.92
2018-07-12T13:57:16.026Z,47.19
2018-07-12T13:59:44.315Z,45.69
2018-07-12T14:02:12.980Z,45.39
2018-07-12T14:04:41.274Z,44.98
2018-07-12T14:07:09.588Z,44.61
2018-07-12T14:09:37.919Z,43.50
2018-07-12T14:12:06.316Z,40.74
2018-07-12T14:14:34.617Z,40.65
2018-07-12T14:17:02.951Z,42.42
2018-07-12T14:19:31.329Z,39.80
2018-07-12T14:21:59.649Z,38.62
2018-07-12T14:24:27.950Z,36.14
2018-07-12T14:26:56.267Z,37.10
2018-07-12T14:29:24.517Z,35.33
2018-07-12T14:31:52.832Z,35.02
2018-07-12T14:34:21.139Z,37.80
2018-07-12T14:36:49.506Z,37.08
2018-07-12T14:39:17.866Z,33.97
2018-07-12T14:41:46.228Z,34.51
2018-07-12T14:44:14.529Z,30.87
2018-07-12T14:46:42.839Z,30.66
2018-07-12T14:49:11.236Z,31.19
2018-07-12T14:51:39.482Z,31.24
2018-07-12T14:54:07.818Z,32.75
2018-07-12T14:56:36.100Z,33.58
2018-07-12T14:59:04.696Z,35.48
2018-07-12T15:01:33.208Z,34.66
2018-07-12T15:04:01.718Z,37.27
2018-07-12T15:06:30.065Z,37.76
2018-07-12T15:08:58.355Z,37.34
2018-07-12T15:11:26.669Z,35.10
2018-07-12T15:13:54.951Z,33.06
2018-07-12T15:16:23.208Z,32.66
2018-07-12T15:18:51.512Z,30.41
2018-07-12T15:21:19.787Z,30.48
2018-07-12T15:23:48.240Z,31.35
2018-07-12T15:26:16.911Z,29.96
2018-07-12T15:28:45.161Z,29.63
2018-07-12T15:31:13.605Z,28.28
2018-07-12T15:33:42.080Z,29.58
2018-07-12T15:36:10.396Z,30.31
2018-07-12T15:38:38.687Z,28.23
2018-07-12T15:41:07.411Z,28.75
2018-07-12T15:43:35.816Z,29.50
2018-07-12T15:46:04.188Z,30.30
2018-07-12T15:48:33.771Z,28.59
2018-07-12T15:51:03.292Z,29.87
2018-07-12T15:53:31.671Z,28.32
2018-07-12T15:56:02.993Z,28.95
2018-07-12T15:58:31.431Z,28.00
2018-07-12T16:00:59.843Z,28.86
2018-07-12T16:03:28.176Z,30.47
2018-07-12T16:05:56.482Z,29.25
2018-07-12T16:08:25.544Z,30.70
2018-07-12T16:10:53.920Z,29.37
2018-07-12T16:13:22.305Z,30.67
2018-07-12T16:15:50.638Z,30.34
2018-07-12T16:18:20.206Z,29.78
2018-07-12T16:20:48.480Z,29.20
2018-07-12T16:23:17.829Z,31.29
2018-07-12T16:25:46.139Z,30.83
2018-07-12T16:28:14.419Z,31.01
2018-07-12T16:30:43.137Z,30.12
2018-07-12T16:33:11.431Z,29.66
2018-07-12T16:35:39.764Z,31.06
2018-07-12T16:38:08.066Z,30.84
2018-07-12T16:40:36.484Z,29.64
2018-07-12T16:43:04.799Z,29.68
2018-07-12T16:45:33.130Z,32.93
2018-07-12T16:48:01.467Z,33.79
2018-07-12T16:50:29.834Z,30.61
2018-07-12T16:52:58.236Z,32.42
2018-07-12T16:55:26.639Z,31.75
2018-07-12T16:57:54.895Z,31.57
2018-07-12T17:00:23.221Z,31.81
2018-07-12T17:02:51.550Z,31.44
2018-07-12T17:05:20.054Z,32.52
2018-07-12T17:07:48.342Z,31.54
2018-07-12T17:10:16.596Z,31.46
2018-07-12T17:12:44.939Z,33.50
2018-07-12T17:15:13.191Z,31.24
2018-07-12T17:17:41.680Z,30.42
2018-07-12T17:20:10.005Z,29.09
2018-07-12T17:22:38.284Z,31.81
2018-07-12T17:25:06.858Z,33.00
2018-07-12T17:27:35.125Z,32.25
2018-07-12T17:30:03.428Z,33.78
2018-07-12T17:32:31.689Z,32.43
2018-07-12T17:35:00.047Z,32.41
2018-07-12T17:37:28.330Z,33.81
2018-07-12T17:39:56.629Z,33.48
2018-07-12T17:42:24.871Z,34.59
2018-07-12T17:44:53.143Z,33.61
2018-07-12T17:47:21.457Z,34.14
2018-07-12T17:49:49.708Z,34.90
2018-07-12T17:52:18.051Z,35.92
2018-07-12T17:54:46.499Z,36.92
2018-07-12T17:57:14.865Z,36.93
2018-07-12T17:59:43.144Z,35.27
2018-07-12T18:02:11.521Z,34.83
2018-07-12T18:04:40.032Z,36.26
2018-07-12T18:07:08.300Z,35.21
2018-07-12T18:09:36.755Z,37.70
2018-07-12T18:12:05.042Z,37.96
2018-07-12T18:14:33.371Z,39.31
2018-07-12T18:17:01.949Z,40.16
2018-07-12T18:19:30.319Z,39.98
2018-07-12T18:21:58.675Z,40.39
2018-07-12T18:24:26.914Z,41.92
2018-07-12T18:26:55.441Z,41.37
2018-07-12T18:29:23.796Z,42.21
2018-07-12T18:31:52.097Z,41.02
2018-07-12T18:34:20.367Z,41.43
2018-07-12T18:36:48.674Z,40.92
2018-07-12T18:39:16.960Z,40.47
2018-07-12T18:41:45.360Z,40.63
2018-07-12T18:44:13.641Z,40.27
2018-07-12T18:46:41.909Z,41.38
2018-07-12T18:49:10.279Z,41.03
2018-07-12T18:51:38.702Z,41.17
2018-07-12T18:54:07.044Z,41.68
2018-07-12T18:56:36.749Z,43.21
2018-07-12T18:59:05.673Z,44.05
2018-07-12T19:01:40.135Z,44.43
2018-07-12T19:04:08.525Z,45.53
2018-07-12T19:06:36.882Z,45.11
2018-07-12T19:09:07.329Z,45.82
2018-07-12T19:11:36.035Z,46.96
2018-07-12T19:14:04.426Z,46.52
2018-07-12T19:16:32.809Z,47.44
2018-07-12T19:19:01.119Z,46.95
2018-07-12T19:21:29.398Z,47.60
2018-07-12T19:23:57.788Z,47.97
2018-07-12T19:26:26.584Z,48.19
2018-07-12T19:28:55.150Z,48.14
2018-07-12T19:31:23.428Z,48.43
2018-07-12T19:33:51.843Z,50.12
2018-07-12T19:36:20.189Z,50.24
2018-07-12T19:38:48.592Z,49.58
2018-07-12T19:41:17.182Z,49.99
2018-07-12T19:43:45.507Z,50.68
2018-07-12T19:46:13.869Z,51.74
2018-07-12T19:48:42.153Z,51.44
2018-07-12T19:51:10.436Z,52.65
2018-07-12T19:53:38.733Z,52.71
2018-07-12T19:56:07.204Z,53.33
2018-07-12T19:58:35.508Z,53.02
2018-07-12T20:01:04.101Z,53.31
2018-07-12T20:03:32.414Z,54.75
2018-07-12T20:06:00.711Z,53.92
2018-07-12T20:08:29.003Z,55.06
2018-07-12T20:10:58.406Z,55.30
2018-07-12T20:13:27.986Z,54.41
2018-07-12T20:15:56.586Z,55.28
2018-07-12T20:18:25.999Z,54.66
2018-07-12T20:20:54.292Z,54.37
2018-07-12T20:23:24.915Z,55.34
2018-07-12T20:25:53.268Z,55.20
2018-07-12T20:28:21.728Z,55.20
2018-07-12T20:30:50.252Z,55.74
2018-07-12T20:33:18.870Z,56.28
2018-07-12T20:35:47.113Z,57.05
2018-07-12T20:38:15.372Z,57.07
2018-07-12T20:40:43.863Z,58.84
2018-07-12T20:43:16.666Z,59.17
2018-07-12T20:45:45.288Z,58.93
2018-07-12T20:48:13.758Z,59.16
2018-07-12T20:50:44.954Z,58.67
2018-07-12T20:53:13.425Z,59.50
2018-07-12T20:55:41.813Z,58.78
2018-07-12T20:58:10.306Z,58.79
2018-07-12T21:00:38.580Z,59.05
2018-07-12T21:03:07.003Z,59.09
2018-07-12T21:05:35.344Z,60.32
2018-07-12T21:08:03.650Z,61.77
2018-07-12T21:10:31.981Z,63.07
2018-07-12T21:13:00.240Z,63.91
2018-07-12T21:15:31.311Z,65.60
2018-07-12T21:18:01.625Z,66.70
2018-07-12T21:20:29.867Z,67.07
2018-07-12T21:22:58.157Z,68.38
2018-07-12T21:25:26.520Z,69.46
2018-07-12T21:27:54.783Z,70.04
2018-07-12T21:30:23.095Z,69.78
2018-07-12T21:32:51.382Z,70.28
2018-07-12T21:35:19.671Z,69.38
2018-07-12T21:37:47.929Z,70.92
2018-07-12T21:40:18.557Z,70.70
2018-07-12T21:42:46.854Z,70.39
2018-07-12T21:45:15.108Z,71.33
2018-07-12T21:47:43.494Z,71.62
2018-07-12T21:50:11.734Z,71.12
2018-07-12T21:52:40.043Z,70.47
2018-07-12T21:55:08.395Z,70.04
2018-07-12T21:57:36.691Z,69.70
2018-07-12T22:00:07.646Z,68.49
2018-07-12T22:02:35.936Z,69.07
2018-07-12T22:05:04.253Z,68.50
2018-07-12T22:08:10.161Z,68.27
2018-07-12T22:10:38.440Z,68.42
2018-07-12T22:13:06.856Z,68.67
2018-07-12T22:15:35.329Z,68.16
2018-07-12T22:18:03.619Z,68.59
2018-07-12T22:20:32.084Z,69.15
2018-07-12T22:23:04.220Z,69.28
2018-07-12T22:25:33.042Z,68.53
2018-07-12T22:28:01.301Z,69.78
2018-07-12T22:30:30.082Z,69.82
2018-07-12T22:32:59.259Z,70.46
2018-07-12T22:35:27.681Z,70.78
2018-07-12T22:37:56.428Z,70.55
2018-07-12T22:40:24.687Z,71.10
2018-07-12T22:42:53.020Z,70.38
2018-07-12T22:45:21.444Z,71.41
2018-07-12T22:47:49.820Z,71.37
2018-07-12T22:50:18.241Z,71.30
2018-07-12T22:52:46.539Z,72.15
2018-07-12T22:55:14.775Z,71.43
2018-07-12T22:57:43.059Z,72.36
2018-07-12T23:00:11.370Z,71.94
2018-07-12T23:02:40.197Z,72.67
2018-07-12T23:05:08.731Z,73.02
2018-07-12T23:07:36.985Z,73.17
2018-07-12T23:10:05.436Z,72.78
2018-07-12T23:12:33.689Z,74.07
2018-07-12T23:15:02.049Z,73.92
2018-07-12T23:17:30.478Z,75.12
2018-07-12T23:19:58.719Z,74.69
2018-07-12T23:22:26.997Z,75.25
2018-07-12T23:24:55.279Z,75.17
2018-07-12T23:27:23.684Z,74.96
2018-07-12T23:29:51.946Z,74.87
2018-07-12T23:32:20.269Z,74.90
2018-07-12T23:34:48.640Z,75.80
2018-07-12T23:37:16.925Z,76.40
2018-07-12T23:39:45.336Z,76.83
2018-07-12T23:42:13.589Z,76.76
2018-07-12T23:44:41.940Z,76.93
2018-07-12T23:47:10.232Z,76.73
2018-07-12T23:49:38.517Z,76.82
2018-07-12T23:52:07.044Z,77.09
2018-07-12T23:54:35.301Z,76.64
2018-07-12T23:57:03.578Z,76.88
2018-07-12T23:59:31.879Z,77.78
